Time;durP1;ratioP1;P1;durP2;ratioP2;P2;SDS_P1;SDS_P2;PMS_P1;PMS_P2;Temp;Humidity;BMP_temperature;BMP_pressure;BME280_temperature;BME280_humidity;BME280_pressure;Samples;Min_cycle;Max_cycle;Signal;HPM_P1;HPM_P2
2022/12/01 00:01:18;;;;;;;1999.90;999.90;;;4.60;99.90;;;;;;5050707;28;20464;-71
2022/12/01 00:03:45;;;;;;;1999.90;999.90;;;4.50;99.90;;;;;;5051109;28;20838;-71
2022/12/01 00:06:14;;;;;;;1999.90;999.90;;;4.60;99.90;;;;;;5051049;28;20447;-71
2022/12/01 00:10:24;;;;;;;1999.90;999.90;;;4.60;99.90;;;;;;5050899;28;20456;-71
2022/12/01 00:11:27;;;;;;;1999.90;999.90;;;4.60;99.90;;;;;;5050683;28;20460;-71
2022/12/01 00:13:55;;;;;;;1999.90;999.90;;;4.50;99.90;;;;;;5050834;28;20444;-66
2022/12/01 00:16:22;;;;;;;1999.90;999.90;;;4.50;99.90;;;;;;5049372;28;20241;-71
2022/12/01 00:18:52;;;;;;;1999.90;999.90;;;4.50;99.90;;;;;;5050340;28;20444;-71
2022/12/01 00:21:21;;;;;;;1999.90;999.90;;;4.60;99.90;;;;;;5050079;28;20464;-71
2022/12/01 00:23:50;;;;;;;1999.90;999.90;;;4.70;99.90;;;;;;5050425;28;20447;-72
2022/12/01 00:26:17;;;;;;;1999.90;999.90;;;4.70;99.90;;;;;;5050532;28;20443;-71
2022/12/01 00:28:44;;;;;;;1999.90;999.90;;;4.70;99.90;;;;;;5050266;28;20444;-72
2022/12/01 00:31:12;;;;;;;1999.90;999.90;;;4.70;99.90;;;;;;5050411;28;20472;-71
2022/12/01 00:33:40;;;;;;;1999.90;999.90;;;4.80;99.90;;;;;;5050500;28;20459;-72
2022/12/01 00:36:07;;;;;;;1999.90;999.90;;;4.90;99.90;;;;;;5050394;28;20898;-72
2022/12/01 00:38:35;;;;;;;1999.90;999.90;;;4.90;99.90;;;;;;5050176;28;20452;-71
2022/12/01 00:41:03;;;;;;;1999.90;999.90;;;4.90;99.90;;;;;;5050332;28;20464;-71
2022/12/01 00:43:31;;;;;;;1999.90;999.90;;;4.80;99.90;;;;;;5050019;28;20444;-71
2022/12/01 00:45:58;;;;;;;1999.90;999.90;;;4.90;99.90;;;;;;5050552;28;20814;-71
2022/12/01 00:48:26;;;;;;;1999.90;999.90;;;4.90;99.90;;;;;;5050046;28;20440;-72
2022/12/01 00:50:54;;;;;;;1999.90;999.90;;;4.90;99.90;;;;;;5050217;28;21005;-72
2022/12/01 00:53:21;;;;;;;1999.90;999.90;;;4.90;99.90;;;;;;5050017;28;21017;-72
2022/12/01 00:55:48;;;;;;;1999.90;999.90;;;4.90;99.90;;;;;;5050102;28;20483;-71
2022/12/01 00:58:14;;;;;;;1999.90;999.90;;;4.90;99.90;;;;;;5049341;28;20440;-71
2022/12/01 01:00:41;;;;;;;1999.90;999.90;;;4.80;99.90;;;;;;5050018;28;20501;-71
2022/12/01 01:03:08;;;;;;;1999.90;999.90;;;4.80;99.90;;;;;;5050294;28;20448;-71
2022/12/01 01:05:37;;;;;;;1999.90;999.90;;;4.70;99.90;;;;;;5049945;28;20482;-71
2022/12/01 01:08:07;;;;;;;1999.90;999.90;;;4.60;99.90;;;;;;5050109;28;20471;-72
2022/12/01 01:10:34;;;;;;;1999.90;999.90;;;4.50;99.90;;;;;;5049601;28;20468;-71
2022/12/01 01:13:00;;;;;;;1999.90;999.90;;;4.60;99.90;;;;;;5050539;28;20819;-71
2022/12/01 01:15:27;;;;;;;1999.90;999.90;;;4.60;99.90;;;;;;5049533;28;21096;-71
2022/12/01 01:17:54;;;;;;;1999.90;999.90;;;4.50;99.90;;;;;;5049901;28;20475;-71
2022/12/01 01:20:21;;;;;;;1999.90;999.90;;;4.50;99.90;;;;;;5049533;28;20464;-71
2022/12/01 01:22:49;;;;;;;1999.90;999.90;;;4.50;99.90;;;;;;5049930;28;21145;-71
2022/12/01 01:25:16;;;;;;;1999.90;999.90;;;4.50;99.90;;;;;;5049806;28;20530;-72
2022/12/01 01:27:42;;;;;;;1999.90;999.90;;;4.40;99.90;;;;;;5049951;28;20447;-71
2022/12/01 01:30:10;;;;;;;1999.90;999.90;;;4.40;99.90;;;;;;5049437;28;20474;-71
2022/12/01 01:32:37;;;;;;;1999.90;999.90;;;4.40;99.90;;;;;;5049818;28;20823;-71
2022/12/01 01:35:04;;;;;;;1999.90;999.90;;;4.40;99.90;;;;;;5049386;28;20462;-70
2022/12/01 01:37:31;;;;;;;1999.90;999.90;;;4.40;99.90;;;;;;5049547;28;20487;-71
2022/12/01 01:39:59;;;;;;;1999.90;999.90;;;4.40;99.90;;;;;;5049193;28;20996;-70
2022/12/01 01:42:26;;;;;;;1999.90;999.90;;;4.40;99.90;;;;;;5049544;28;21013;-71
2022/12/01 01:44:54;;;;;;;1999.90;999.90;;;4.40;99.90;;;;;;5049485;28;20447;-72
2022/12/01 01:47:25;;;;;;;1999.90;999.90;;;4.30;99.90;;;;;;5049290;28;20444;-71
2022/12/01 01:49:53;;;;;;;1999.90;999.90;;;4.30;99.90;;;;;;5049327;28;20448;-70
2022/12/01 01:52:20;;;;;;;1999.90;999.90;;;4.30;99.90;;;;;;5049511;28;20444;-71
2022/12/01 01:54:51;;;;;;;1999.90;999.90;;;4.20;99.90;;;;;;5049669;28;20444;-71
2022/12/01 01:57:25;;;;;;;1999.90;999.90;;;4.20;99.90;;;;;;5049213;28;20491;-71
2022/12/01 01:59:56;;;;;;;1999.90;999.90;;;4.30;99.90;;;;;;5049021;28;20443;-71
2022/12/01 02:02:24;;;;;;;1999.90;999.90;;;4.20;99.90;;;;;;5049145;28;20825;-71
2022/12/01 02:04:56;;;;;;;1999.90;999.90;;;4.20;99.90;;;;;;5049336;28;20874;-71
2022/12/01 02:07:24;;;;;;;1999.90;999.90;;;4.20;99.90;;;;;;5049196;28;20451;-71
2022/12/01 02:09:51;;;;;;;1999.90;999.90;;;4.20;99.90;;;;;;5051550;28;21024;-71
2022/12/01 02:12:49;;;;;;;1999.90;999.90;;;4.20;99.90;;;;;;5053130;28;20447;-71
2022/12/01 02:15:24;;;;;;;1999.90;999.90;;;4.20;99.90;;;;;;5053234;28;20458;-71
2022/12/01 02:18:00;;;;;;;1999.90;999.90;;;4.20;99.90;;;;;;5052966;28;20483;-72
2022/12/01 02:21:12;;;;;;;1999.90;999.90;;;4.20;99.90;;;;;;5052923;28;20464;-71
2022/12/01 02:24:05;;;;;;;1999.90;999.90;;;4.20;99.90;;;;;;5034153;28;20448;-71
2022/12/01 02:26:44;;;;;;;1999.90;999.90;;;4.20;99.90;;;;;;5053133;28;20444;-71
2022/12/01 02:29:39;;;;;;;1999.90;999.90;;;4.20;99.90;;;;;;5052711;28;20448;-70
2022/12/01 02:32:16;;;;;;;1999.90;999.90;;;4.10;99.90;;;;;;5052815;28;20455;-71
2022/12/01 02:34:59;;;;;;;1999.90;999.90;;;4.10;99.90;;;;;;5052885;28;21327;-71
2022/12/01 02:37:33;;;;;;;1999.90;999.90;;;4.10;99.90;;;;;;5052909;28;20512;-71
2022/12/01 02:40:06;;;;;;;1999.90;999.90;;;4.10;99.90;;;;;;5052208;28;20471;-71
2022/12/01 02:42:52;;;;;;;1999.90;999.90;;;4.10;99.90;;;;;;5053045;28;20444;-71
2022/12/01 02:45:30;;;;;;;1999.90;999.90;;;4.10;99.90;;;;;;5052630;28;20869;-70
2022/12/01 02:48:02;;;;;;;1999.90;999.90;;;4.10;99.90;;;;;;5052702;28;20448;-71
2022/12/01 02:50:32;;;;;;;1999.90;999.90;;;4.00;99.90;;;;;;5052087;28;20471;-71
2022/12/01 02:53:01;;;;;;;1999.90;999.90;;;4.10;99.90;;;;;;5052788;28;20444;-71
2022/12/01 02:55:27;;;;;;;1999.90;999.90;;;4.10;99.90;;;;;;5052592;28;20447;-71
2022/12/01 02:57:54;;;;;;;1999.90;999.90;;;4.10;99.90;;;;;;5052384;28;20479;-71
2022/12/01 03:00:21;;;;;;;1999.90;999.90;;;4.10;99.90;;;;;;5051864;28;20471;-71
2022/12/01 03:03:01;;;;;;;1999.90;999.90;;;4.10;99.90;;;;;;5052272;28;20436;-70
2022/12/01 03:05:39;;;;;;;1999.90;999.90;;;4.10;99.90;;;;;;5052286;28;20452;-71
2022/12/01 03:08:19;;;;;;;1999.90;999.90;;;4.10;99.90;;;;;;5052250;28;20451;-71
2022/12/01 03:10:52;;;;;;;1999.90;999.90;;;4.10;99.90;;;;;;5052030;28;20887;-71
2022/12/01 03:13:30;;;;;;;1999.90;999.90;;;4.10;99.90;;;;;;5052082;28;20444;-71
2022/12/01 03:16:03;;;;;;;1999.90;999.90;;;4.10;99.90;;;;;;5051896;28;20448;-71
2022/12/01 03:18:36;;;;;;;1999.90;999.90;;;4.10;99.90;;;;;;5051914;28;20479;-71
2022/12/01 03:21:09;;;;;;;1999.90;999.90;;;4.10;99.90;;;;;;5051753;28;20522;-72
2022/12/01 03:23:40;;;;;;;1999.90;999.90;;;4.00;99.90;;;;;;5051860;28;20444;-71
2022/12/01 03:26:11;;;;;;;1999.90;999.90;;;4.10;99.90;;;;;;5051831;28;20448;-72
2022/12/01 03:28:42;;;;;;;1999.90;999.90;;;4.10;99.90;;;;;;5051453;28;20963;-71
2022/12/01 03:31:15;;;;;;;1999.90;999.90;;;4.20;99.90;;;;;;5051887;28;20814;-71
2022/12/01 03:33:49;;;;;;;1999.90;999.90;;;4.20;99.90;;;;;;5051768;28;20452;-71
2022/12/01 03:36:20;;;;;;;1999.90;999.90;;;4.20;99.90;;;;;;5051800;28;20447;-71
2022/12/01 03:38:52;;;;;;;1999.90;999.90;;;4.10;99.90;;;;;;5051544;28;20440;-71
2022/12/01 03:41:25;;;;;;;1999.90;999.90;;;4.10;99.90;;;;;;5051746;28;20489;-71
2022/12/01 03:43:55;;;;;;;1999.90;999.90;;;4.20;99.90;;;;;;5051935;28;20444;-72
2022/12/01 03:46:29;;;;;;;1999.90;999.90;;;4.20;99.90;;;;;;5051807;28;20459;-71
2022/12/01 03:48:57;;;;;;;1999.90;999.90;;;4.30;99.90;;;;;;5051103;28;20444;-71
2022/12/01 03:51:32;;;;;;;1999.90;999.90;;;4.20;99.90;;;;;;5051871;28;20467;-71
2022/12/01 03:54:05;;;;;;;1999.90;999.90;;;4.20;99.90;;;;;;5051944;28;20435;-71
2022/12/01 03:56:36;;;;;;;1999.90;999.90;;;4.20;99.90;;;;;;5051782;28;20447;-72
2022/12/01 03:59:06;;;;;;;1999.90;999.90;;;4.20;99.90;;;;;;5051389;28;20436;-71
2022/12/01 04:01:33;;;;;;;1999.90;999.90;;;4.10;99.90;;;;;;5051348;28;20462;-70
2022/12/01 04:04:11;;;;;;;1999.90;999.90;;;4.10;99.90;;;;;;5051413;28;20439;-71
2022/12/01 04:06:40;;;;;;;1999.90;999.90;;;4.00;99.90;;;;;;5051711;28;20509;-71
2022/12/01 04:09:06;;;;;;;1999.90;999.90;;;4.00;99.90;;;;;;5050984;28;20444;-71
2022/12/01 04:14:26;;;;;;;1999.90;999.90;;;3.90;99.90;;;;;;5026393;28;20428;-70
2022/12/01 04:16:53;;;;;;;1999.90;999.90;;;3.90;99.90;;;;;;5050989;28;20476;-72
2022/12/01 04:19:21;;;;;;;1999.90;999.90;;;3.80;99.90;;;;;;5050860;28;20466;-70
2022/12/01 04:21:47;;;;;;;1999.90;999.90;;;3.80;99.90;;;;;;5050866;28;20464;-70
2022/12/01 04:24:14;;;;;;;1999.90;999.90;;;3.80;99.90;;;;;;5051035;28;20458;-70
2022/12/01 04:26:42;;;;;;;1999.90;999.90;;;3.80;99.90;;;;;;5050634;28;20448;-70
2022/12/01 04:29:10;;;;;;;1999.90;999.90;;;3.80;99.90;;;;;;5050622;28;20448;-70
2022/12/01 04:31:37;;;;;;;1999.90;999.90;;;3.80;99.90;;;;;;5049926;28;20460;-71
2022/12/01 04:34:04;;;;;;;1999.90;999.90;;;3.70;99.90;;;;;;5050706;28;20921;-70
2022/12/01 04:36:35;;;;;;;1999.90;999.90;;;3.70;99.90;;;;;;5050259;28;21283;-70
2022/12/01 04:39:02;;;;;;;1999.90;999.90;;;3.80;99.90;;;;;;5050280;28;20486;-70
2022/12/01 04:41:29;;;;;;;1999.90;999.90;;;3.80;99.90;;;;;;5050425;28;20463;-69
2022/12/01 04:43:56;;;;;;;1999.90;999.90;;;3.80;99.90;;;;;;5050611;28;20440;-71
2022/12/01 04:46:23;;;;;;;1999.90;999.90;;;3.70;99.90;;;;;;5050568;28;20459;-70
2022/12/01 04:48:50;;;;;;;1999.90;999.90;;;3.80;99.90;;;;;;5050163;28;20447;-70
2022/12/01 04:51:17;;;;;;;1999.90;999.90;;;3.80;99.90;;;;;;5050308;28;20464;-70
2022/12/01 04:53:45;;;;;;;1999.90;999.90;;;3.80;99.90;;;;;;5050329;28;20463;-71
2022/12/01 04:56:12;;;;;;;1999.90;999.90;;;3.80;99.90;;;;;;5050496;28;20461;-71
2022/12/01 04:58:40;;;;;;;1999.90;999.90;;;3.70;99.90;;;;;;5049834;28;20850;-70
2022/12/01 05:01:09;;;;;;;1999.90;999.90;;;3.80;99.90;;;;;;5050339;28;20470;-71
2022/12/01 05:03:37;;;;;;;1999.90;999.90;;;3.90;99.90;;;;;;5050238;28;20444;-70
2022/12/01 05:06:05;;;;;;;1999.90;999.90;;;3.90;99.90;;;;;;5049931;28;20948;-71
2022/12/01 05:08:33;;;;;;;1999.90;999.90;;;3.90;99.90;;;;;;5049520;28;20439;-71
2022/12/01 05:11:01;;;;;;;1999.90;999.90;;;3.90;99.90;;;;;;5050067;28;20471;-70
2022/12/01 05:13:28;;;;;;;1999.90;999.90;;;3.90;99.90;;;;;;5049666;28;20440;-70
2022/12/01 05:16:04;;;;;;;1999.90;999.90;;;3.90;99.90;;;;;;5050008;28;20447;-70
2022/12/01 05:18:31;;;;;;;1999.90;999.90;;;3.90;99.90;;;;;;5049332;28;20860;-70
2022/12/01 05:20:57;;;;;;;1999.90;999.90;;;3.80;99.90;;;;;;5049729;28;20467;-71
2022/12/01 05:23:25;;;;;;;1999.90;999.90;;;3.80;99.90;;;;;;5050043;28;20896;-72
2022/12/01 05:25:51;;;;;;;1999.90;999.90;;;3.80;99.90;;;;;;5049807;28;20835;-72
2022/12/01 05:28:20;;;;;;;1999.90;999.90;;;3.80;99.90;;;;;;5049708;28;20915;-72
2022/12/01 05:30:47;;;;;;;1999.90;999.90;;;3.80;99.90;;;;;;5049797;28;20460;-71
2022/12/01 05:33:14;;;;;;;1999.90;999.90;;;3.80;99.90;;;;;;5049764;28;21121;-72
2022/12/01 05:35:41;;;;;;;1999.90;999.90;;;3.80;99.90;;;;;;5049445;28;20452;-71
2022/12/01 05:38:08;;;;;;;1999.90;999.90;;;3.80;99.90;;;;;;5049439;28;20475;-70
2022/12/01 05:40:35;;;;;;;1999.90;999.90;;;3.80;99.90;;;;;;5049308;28;20459;-71
2022/12/01 05:43:02;;;;;;;1999.90;999.90;;;3.80;99.90;;;;;;5051846;28;20455;-71
2022/12/01 05:45:30;;;;;;;1999.90;999.90;;;3.90;99.90;;;;;;5055974;28;20440;-68
2022/12/01 05:47:58;;;;;;;1999.90;999.90;;;3.90;99.90;;;;;;5056437;28;20440;-68
2022/12/01 05:50:26;;;;;;;1999.90;999.90;;;3.90;99.90;;;;;;5055912;28;20817;-68
2022/12/01 05:52:53;;;;;;;1999.90;999.90;;;3.90;99.90;;;;;;5056175;28;20443;-69
2022/12/01 05:55:20;;;;;;;1999.90;999.90;;;3.90;99.90;;;;;;5056111;28;20451;-70
2022/12/01 05:57:47;;;;;;;1999.90;999.90;;;3.90;99.90;;;;;;5055832;28;20487;-70
2022/12/01 06:00:15;;;;;;;1999.90;999.90;;;3.90;99.90;;;;;;5055782;28;20456;-68
2022/12/01 06:02:44;;;;;;;1999.90;999.90;;;3.90;99.90;;;;;;5055758;28;20454;-70
2022/12/01 06:05:11;;;;;;;1999.90;999.90;;;3.90;99.90;;;;;;5049338;28;20548;-70
2022/12/01 06:07:39;;;;;;;1999.90;999.90;;;3.90;99.90;;;;;;5044482;28;20440;-69
2022/12/01 06:10:07;;;;;;;1999.90;999.90;;;3.80;99.90;;;;;;5042938;28;20551;-70
2022/12/01 06:12:34;;;;;;;1999.90;999.90;;;3.80;99.90;;;;;;5042143;28;20502;-69
2022/12/01 06:15:01;;;;;;;1999.90;999.90;;;3.80;99.90;;;;;;5043617;28;20448;-70
2022/12/01 06:17:28;;;;;;;1999.90;999.90;;;3.80;99.90;;;;;;5048996;28;20475;-69
2022/12/01 06:19:56;;;;;;;1999.90;999.90;;;3.80;99.90;;;;;;5054818;28;20451;-69
2022/12/01 06:22:23;;;;;;;1999.90;999.90;;;3.80;99.90;;;;;;5055510;28;20451;-69
2022/12/01 06:24:49;;;;;;;1999.90;999.90;;;3.80;99.90;;;;;;5055442;28;20439;-69
2022/12/01 06:27:16;;;;;;;1999.90;999.90;;;3.80;99.90;;;;;;5054834;28;20440;-69
2022/12/01 06:29:43;;;;;;;1999.90;999.90;;;3.80;99.90;;;;;;5055356;28;20448;-67
2022/12/01 06:32:10;;;;;;;1999.90;999.90;;;3.80;99.90;;;;;;5056052;28;20444;-69
2022/12/01 06:34:37;;;;;;;1999.90;999.90;;;3.80;99.90;;;;;;5055791;28;20444;-69
2022/12/01 06:37:05;;;;;;;1999.90;999.90;;;3.80;99.90;;;;;;5055934;28;20443;-69
2022/12/01 06:39:32;;;;;;;1999.90;999.90;;;3.80;99.90;;;;;;5055516;28;20452;-69
2022/12/01 06:41:59;;;;;;;1999.90;999.90;;;3.80;99.90;;;;;;5055852;28;20460;-69
2022/12/01 06:44:26;;;;;;;1999.90;999.90;;;3.80;99.90;;;;;;5055893;28;20475;-69
2022/12/01 06:46:52;;;;;;;1999.90;999.90;;;3.80;99.90;;;;;;5055720;28;20842;-68
2022/12/01 06:49:19;;;;;;;1999.90;999.90;;;3.80;99.90;;;;;;5054331;28;20453;-69
2022/12/01 06:51:46;;;;;;;1999.90;999.90;;;3.80;99.90;;;;;;5055649;28;20512;-69
2022/12/01 06:54:16;;;;;;;1999.90;999.90;;;3.90;99.90;;;;;;5053118;28;20479;-70
2022/12/01 06:56:44;;;;;;;1999.90;999.90;;;3.90;99.90;;;;;;5051288;28;20461;-70
2022/12/01 06:59:11;;;;;;;1999.90;999.90;;;3.90;99.90;;;;;;5049460;28;20567;-70
2022/12/01 07:01:38;;;;;;;1999.90;999.90;;;3.90;99.90;;;;;;5053085;28;20483;-69
2022/12/01 07:04:05;;;;;;;1999.90;999.90;;;3.90;99.90;;;;;;5052995;28;20451;-69
2022/12/01 07:06:32;;;;;;;1999.90;999.90;;;3.90;99.90;;;;;;5054096;28;20531;-70
2022/12/01 07:08:59;;;;;;;1999.90;999.90;;;3.90;99.90;;;;;;5071851;28;20517;-69
2022/12/01 07:11:28;;;;;;;1999.90;999.90;;;3.90;99.90;;;;;;5072057;28;20473;-69
2022/12/01 07:13:56;;;;;;;1999.90;999.90;;;3.90;99.90;;;;;;5072173;28;20451;-69
2022/12/01 07:16:23;;;;;;;1999.90;999.90;;;3.90;99.90;;;;;;5071933;28;20447;-69
2022/12/01 07:18:51;;;;;;;1999.90;999.90;;;3.90;99.90;;;;;;5071838;28;20879;-69
2022/12/01 07:21:18;;;;;;;1999.90;999.90;;;3.90;99.90;;;;;;5072287;28;20844;-69
2022/12/01 07:23:45;;;;;;;1999.90;999.90;;;3.90;99.90;;;;;;5071641;28;20955;-70
2022/12/01 07:26:13;;;;;;;1999.90;999.90;;;4.00;99.90;;;;;;5071864;28;20451;-69
2022/12/01 07:28:42;;;;;;;1999.90;999.90;;;4.00;99.90;;;;;;5071512;28;20439;-70
2022/12/01 07:31:11;;;;;;;1999.90;999.90;;;4.00;99.90;;;;;;5048982;28;20482;-69
2022/12/01 07:33:38;;;;;;;1999.90;999.90;;;4.00;99.90;;;;;;5050131;28;20946;-71
2022/12/01 07:36:07;;;;;;;1999.90;999.90;;;4.00;99.90;;;;;;5050513;28;20839;-69
2022/12/01 07:38:35;;;;;;;1999.90;999.90;;;4.00;99.90;;;;;;5050496;28;20570;-69
2022/12/01 07:41:03;;;;;;;1999.90;999.90;;;4.10;99.90;;;;;;5050736;28;20464;-70
2022/12/01 07:43:30;;;;;;;1999.90;999.90;;;4.00;99.90;;;;;;5050264;28;20493;-69
2022/12/01 07:46:04;;;;;;;1999.90;999.90;;;4.00;99.90;;;;;;5044087;28;20833;-71
2022/12/01 07:48:31;;;;;;;1999.90;999.90;;;4.10;99.90;;;;;;5047650;28;20884;-69
2022/12/01 07:50:58;;;;;;;1999.90;999.90;;;4.00;99.90;;;;;;5040947;28;20459;-70
2022/12/01 07:53:24;;;;;;;1999.90;999.90;;;4.00;99.90;;;;;;5048825;28;20448;-70
2022/12/01 07:55:51;;;;;;;1999.90;999.90;;;4.00;99.90;;;;;;5043088;28;20746;-69
2022/12/01 07:58:18;;;;;;;1999.90;999.90;;;4.00;99.90;;;;;;5040459;28;20492;-70
2022/12/01 08:00:45;;;;;;;1999.90;999.90;;;4.00;99.90;;;;;;5048585;28;20467;-69
2022/12/01 08:03:13;;;;;;;1999.90;999.90;;;4.00;99.90;;;;;;5049798;28;20448;-69
2022/12/01 08:05:40;;;;;;;1999.90;999.90;;;4.00;99.90;;;;;;5045686;28;20444;-70
2022/12/01 08:08:07;;;;;;;1999.90;999.90;;;4.00;99.90;;;;;;5049060;28;20467;-70
2022/12/01 08:10:34;;;;;;;1999.90;999.90;;;4.10;99.90;;;;;;5051859;28;20475;-70
2022/12/01 08:13:00;;;;;;;1999.90;999.90;;;4.10;99.90;;;;;;5047275;28;20456;-69
2022/12/01 08:15:27;;;;;;;1999.90;999.90;;;4.20;99.90;;;;;;5051177;28;20462;-69
2022/12/01 08:17:54;;;;;;;1999.90;999.90;;;4.20;99.90;;;;;;5042276;28;20492;-69
2022/12/01 08:20:22;;;;;;;1999.90;999.90;;;4.30;99.90;;;;;;5048614;28;20460;-69
2022/12/01 08:22:49;;;;;;;1999.90;999.90;;;4.20;99.90;;;;;;5046761;28;20467;-68
2022/12/01 08:25:16;;;;;;;1999.90;999.90;;;4.20;99.90;;;;;;5046014;28;20455;-69
2022/12/01 08:27:42;;;;;;;1999.90;999.90;;;4.20;99.90;;;;;;5047413;28;20462;-69
2022/12/01 08:30:10;;;;;;;1999.90;999.90;;;4.20;99.90;;;;;;5045530;28;20459;-68
2022/12/01 08:32:37;;;;;;;1999.90;999.90;;;4.20;99.90;;;;;;5044679;28;20462;-68
2022/12/01 08:35:04;;;;;;;1999.90;999.90;;;4.20;99.90;;;;;;5043491;28;20459;-69
2022/12/01 08:37:32;;;;;;;1999.90;999.90;;;4.20;99.90;;;;;;5044571;28;20440;-70
2022/12/01 08:39:59;;;;;;;1999.90;999.90;;;4.20;99.90;;;;;;5045745;28;20483;-69
2022/12/01 08:42:25;;;;;;;1999.90;999.90;;;4.10;99.90;;;;;;5050074;28;20444;-68
2022/12/01 08:44:52;;;;;;;1999.90;999.90;;;4.20;99.90;;;;;;5050939;28;20443;-70
2022/12/01 08:47:19;;;;;;;1999.90;999.90;;;4.20;99.90;;;;;;5050678;28;20444;-68
2022/12/01 08:49:46;;;;;;;1999.90;999.90;;;4.20;99.90;;;;;;5049849;28;20440;-69
2022/12/01 08:52:12;;;;;;;1999.90;999.90;;;4.20;99.90;;;;;;5050089;28;20448;-69
2022/12/01 08:54:41;;;;;;;1999.90;999.90;;;4.20;99.90;;;;;;5047645;28;20444;-69
2022/12/01 08:57:07;;;;;;;1999.90;999.90;;;4.30;99.90;;;;;;5042049;28;20521;-69
2022/12/01 08:59:34;;;;;;;1999.90;999.90;;;4.20;99.90;;;;;;5059909;28;20561;-70
2022/12/01 09:02:01;;;;;;;1999.90;999.90;;;4.30;99.90;;;;;;5046637;28;20974;-69
2022/12/01 09:04:28;;;;;;;1999.90;999.90;;;4.30;99.90;;;;;;5049999;28;20444;-69
2022/12/01 09:06:56;;;;;;;1999.90;999.90;;;4.40;99.90;;;;;;5046908;28;20449;-69
2022/12/01 09:09:25;;;;;;;1999.90;999.90;;;4.50;99.90;;;;;;5044570;28;20459;-69
2022/12/01 09:11:53;;;;;;;1999.90;999.90;;;4.50;99.90;;;;;;5047927;28;20480;-69
2022/12/01 09:14:21;;;;;;;1999.90;999.90;;;4.60;99.90;;;;;;5048505;28;20451;-68
2022/12/01 09:16:50;;;;;;;1999.90;999.90;;;4.50;99.90;;;;;;5049073;28;20483;-69
2022/12/01 09:19:18;;;;;;;1999.90;999.90;;;4.50;99.90;;;;;;5048315;28;20486;-68
2022/12/01 09:21:45;;;;;;;1999.90;999.90;;;4.40;99.90;;;;;;5048043;28;21254;-70
2022/12/01 09:24:13;;;;;;;1999.90;999.90;;;4.40;99.90;;;;;;5048401;28;20946;-70
2022/12/01 09:26:44;;;;;;;1999.90;999.90;;;4.40;99.90;;;;;;5048786;28;20444;-69
2022/12/01 09:29:14;;;;;;;1999.90;999.90;;;4.50;99.90;;;;;;5048407;28;20915;-68
2022/12/01 09:31:42;;;;;;;1999.90;999.90;;;4.50;99.90;;;;;;5049051;28;20468;-70
2022/12/01 09:34:14;;;;;;;1999.90;999.90;;;4.50;99.90;;;;;;5048477;28;20454;-69
2022/12/01 09:36:41;;;;;;;1999.90;999.90;;;4.40;99.90;;;;;;5048832;28;20462;-69
2022/12/01 09:39:11;;;;;;;1999.90;999.90;;;4.50;99.90;;;;;;5048132;28;20497;-69
2022/12/01 09:41:42;;;;;;;1999.90;999.90;;;4.50;99.90;;;;;;5049301;28;20806;-70
2022/12/01 09:44:19;;;;;;;1999.90;999.90;;;4.60;99.90;;;;;;5048579;28;20447;-70
2022/12/01 09:46:49;;;;;;;1999.90;999.90;;;4.80;99.90;;;;;;5048398;28;20443;-71
2022/12/01 09:49:18;;;;;;;1999.90;999.90;;;4.70;99.90;;;;;;5048161;28;20450;-71
2022/12/01 09:51:45;;;;;;;1999.90;999.90;;;4.70;99.90;;;;;;5046545;28;20468;-71
2022/12/01 09:54:14;;;;;;;1999.90;999.90;;;4.70;99.90;;;;;;5043050;28;20443;-71
2022/12/01 09:56:44;;;;;;;1999.90;999.90;;;4.80;99.90;;;;;;5047124;28;20437;-71
2022/12/01 09:59:18;;;;;;;1999.90;999.90;;;4.70;99.90;;;;;;5039075;28;20487;-70
2022/12/01 10:01:48;;;;;;;1999.90;999.90;;;4.80;99.90;;;;;;5044722;28;20482;-71
2022/12/01 10:04:19;;;;;;;1999.90;999.90;;;4.90;99.90;;;;;;5040376;28;20451;-70
2022/12/01 10:06:51;;;;;;;1999.90;999.90;;;5.00;99.90;;;;;;5037706;28;20444;-70
2022/12/01 10:09:23;;;;;;;1999.90;999.90;;;4.90;99.90;;;;;;5029607;28;20441;-69
2022/12/01 10:11:54;;;;;;;1999.90;999.90;;;4.90;99.90;;;;;;5046598;28;20467;-70
2022/12/01 10:14:23;;;;;;;1999.90;999.90;;;4.90;99.90;;;;;;5047542;28;20444;-70
2022/12/01 10:17:03;;;;;;;1999.90;999.90;;;4.90;99.90;;;;;;5048173;28;20532;-72
2022/12/01 10:19:34;;;;;;;1999.90;999.90;;;5.00;99.90;;;;;;5047417;28;21280;-69
2022/12/01 10:22:16;;;;;;;1999.90;999.90;;;5.00;99.90;;;;;;5044444;28;21234;-70
2022/12/01 10:24:54;;;;;;;1999.90;999.90;;;5.00;99.90;;;;;;5030920;28;20532;-71
2022/12/01 10:27:33;;;;;;;1999.90;999.90;;;5.00;99.90;;;;;;5029825;28;20444;-70
2022/12/01 10:30:05;;;;;;;1999.90;999.90;;;5.00;99.90;;;;;;5032697;28;21013;-74
2022/12/01 10:32:41;;;;;;;1999.90;999.90;;;5.00;99.90;;;;;;5052089;28;20458;-71
2022/12/01 10:35:12;;;;;;;1999.90;999.90;;;4.90;99.90;;;;;;5052252;28;20975;-70
2022/12/01 10:37:40;;;;;;;1999.90;999.90;;;5.00;99.90;;;;;;5052776;28;20436;-71
2022/12/01 10:40:13;;;;;;;1999.90;999.90;;;5.00;99.90;;;;;;5052208;28;20801;-71
2022/12/01 10:42:43;;;;;;;1999.90;999.90;;;4.90;99.90;;;;;;5044218;28;20463;-71
2022/12/01 10:45:18;;;;;;;1999.90;999.90;;;4.90;99.90;;;;;;5046283;28;20455;-71
2022/12/01 10:48:08;;;;;;;1999.90;999.90;;;5.00;99.90;;;;;;5052142;28;20445;-71
2022/12/01 10:50:35;;;;;;;1999.90;999.90;;;4.90;99.90;;;;;;5052220;28;20543;-71
2022/12/01 10:53:03;;;;;;;1999.90;999.90;;;4.90;99.90;;;;;;5052255;28;20451;-71
2022/12/01 10:55:33;;;;;;;1999.90;999.90;;;5.00;99.90;;;;;;5052402;28;21003;-71
2022/12/01 10:58:05;;;;;;;1999.90;999.90;;;5.00;99.90;;;;;;5036050;28;20466;-71
2022/12/01 11:00:37;;;;;;;1999.90;999.90;;;5.10;99.90;;;;;;5052155;28;20483;-71
2022/12/01 11:03:05;;;;;;;1999.90;999.90;;;5.20;99.90;;;;;;5052155;28;20443;-72
2022/12/01 11:05:37;;;;;;;1999.90;999.90;;;5.20;99.90;;;;;;5052005;28;20962;-71
2022/12/01 11:08:04;;;;;;;1999.90;999.90;;;5.30;99.90;;;;;;5051984;28;20455;-71
2022/12/01 11:10:32;;;;;;;1999.90;999.90;;;5.30;99.90;;;;;;5051528;28;20456;-72
2022/12/01 11:13:05;;;;;;;1999.90;999.90;;;5.40;99.90;;;;;;5052275;28;20436;-72
2022/12/01 11:15:40;;;;;;;1999.90;999.90;;;5.40;99.90;;;;;;5048999;28;20454;-71
2022/12/01 11:18:21;;;;;;;1999.90;999.90;;;5.40;99.90;;;;;;5051953;28;20808;-71
2022/12/01 11:21:03;;;;;;;1999.90;999.90;;;5.30;99.90;;;;;;5051405;28;20484;-72
2022/12/01 11:23:30;;;;;;;1999.90;999.90;;;5.30;99.90;;;;;;5048303;28;20455;-71
2022/12/01 11:26:01;;;;;;;1999.90;999.90;;;5.30;99.90;;;;;;5044395;28;20449;-72
2022/12/01 11:28:29;;;;;;;1999.90;999.90;;;5.30;99.90;;;;;;5051848;28;20448;-72
2022/12/01 11:31:01;;;;;;;1999.90;999.90;;;5.30;99.90;;;;;;5051811;28;20464;-71
2022/12/01 11:33:28;;;;;;;1999.90;999.90;;;5.30;99.90;;;;;;5051865;28;20539;-70
2022/12/01 11:35:55;;;;;;;1999.90;999.90;;;5.40;99.90;;;;;;5048941;28;20444;-71
2022/12/01 11:38:24;;;;;;;1999.90;999.90;;;5.40;99.90;;;;;;5050586;28;20451;-70
2022/12/01 11:40:53;;;;;;;1999.90;999.90;;;5.40;99.90;;;;;;5048283;28;20483;-70
2022/12/01 11:43:26;;;;;;;1999.90;999.90;;;5.50;99.90;;;;;;5045098;28;20479;-70
2022/12/01 11:45:54;;;;;;;1999.90;999.90;;;5.50;99.90;;;;;;5051259;28;20446;-69
2022/12/01 11:48:26;;;;;;;1999.90;999.90;;;5.50;99.90;;;;;;5051234;28;20448;-70
2022/12/01 11:51:06;;;;;;;1999.90;999.90;;;5.70;99.90;;;;;;5051664;28;20462;-71
2022/12/01 11:53:35;;;;;;;1999.90;999.90;;;5.80;99.90;;;;;;5051168;28;20677;-70
2022/12/01 11:56:22;;;;;;;1999.90;999.90;;;5.80;99.90;;;;;;5042779;28;20472;-70
2022/12/01 11:58:50;;;;;;;1999.90;999.90;;;5.80;99.90;;;;;;5039046;28;20445;-68
2022/12/01 12:01:31;;;;;;;1999.90;999.90;;;5.70;99.90;;;;;;5041334;28;20852;-70
2022/12/01 12:04:10;;;;;;;1999.90;999.90;;;5.70;99.90;;;;;;5047547;28;20442;-70
2022/12/01 12:06:43;;;;;;;1999.90;999.90;;;5.60;99.90;;;;;;5050280;28;20490;-70
2022/12/01 12:09:34;;;;;;;1999.90;999.90;;;5.60;99.90;;;;;;5049966;28;20436;-69
2022/12/01 12:12:15;;;;;;;1999.90;999.90;;;5.60;99.90;;;;;;5050557;28;20470;-70
2022/12/01 12:14:53;;;;;;;1999.90;999.90;;;5.70;99.90;;;;;;5047821;28;20448;-70
2022/12/01 12:17:28;;;;;;;1999.90;999.90;;;5.80;99.90;;;;;;5038113;28;20964;-69
2022/12/01 12:20:20;;;;;;;1999.90;999.90;;;5.80;99.90;;;;;;5040328;28;20510;-69
2022/12/01 12:22:58;;;;;;;1999.90;999.90;;;5.80;99.90;;;;;;5040723;28;20456;-69
2022/12/01 12:25:32;;;;;;;1999.90;999.90;;;6.00;99.90;;;;;;5045644;28;20532;-69